createdAt,value
2022-09-25T00:00:55.877Z,92.91
2022-09-25T00:03:13.021Z,93.09
2022-09-25T00:05:30.094Z,92.30
2022-09-25T00:07:47.282Z,93.01
2022-09-25T00:10:04.521Z,92.23
2022-09-25T00:12:21.595Z,91.83
2022-09-25T00:14:39.583Z,91.95
2022-09-25T00:16:56.706Z,91.88
2022-09-25T00:19:14.126Z,92.67
2022-09-25T00:21:31.631Z,92.27
2022-09-25T00:23:48.957Z,92.48
2022-09-25T00:26:09.107Z,92.36
2022-09-25T00:28:26.423Z,91.89
2022-09-25T00:30:44.480Z,92.23
2022-09-25T00:33:01.531Z,92.94
2022-09-25T00:35:18.751Z,92.97
2022-09-25T00:37:36.575Z,93.25
2022-09-25T00:39:53.582Z,92.72
2022-09-25T00:42:10.813Z,92.40
2022-09-25T00:44:27.854Z,92.36
2022-09-25T00:46:45.882Z,92.94
2022-09-25T00:49:03.017Z,92.62
2022-09-25T00:51:19.955Z,92.96
2022-09-25T00:53:36.900Z,93.44
2022-09-25T00:55:53.827Z,92.93
2022-09-25T00:58:10.783Z,93.65
2022-09-25T01:00:27.860Z,93.57
2022-09-25T01:02:45.765Z,93.57
2022-09-25T01:05:02.712Z,93.61
2022-09-25T01:07:19.802Z,93.35
2022-09-25T01:09:38.080Z,92.72
2022-09-25T01:11:55.099Z,93.15
2022-09-25T01:14:12.070Z,92.46
2022-09-25T01:16:29.241Z,92.71
2022-09-25T01:18:47.556Z,92.93
2022-09-25T01:21:04.816Z,93.36
2022-09-25T01:23:21.888Z,93.29
2022-09-25T01:25:39.884Z,93.19
2022-09-25T01:27:57.238Z,94.04
2022-09-25T01:30:15.166Z,92.99
2022-09-25T01:32:32.228Z,94.16
2022-09-25T01:34:49.119Z,93.24
2022-09-25T01:37:06.060Z,93.30
2022-09-25T01:39:23.214Z,93.63
2022-09-25T01:41:40.400Z,94.07
2022-09-25T01:43:58.712Z,93.85
2022-09-25T01:46:15.798Z,93.47
2022-09-25T01:48:32.849Z,93.70
2022-09-25T01:50:49.965Z,92.85
2022-09-25T01:53:07.215Z,93.40
2022-09-25T01:55:24.447Z,93.51
2022-09-25T01:57:41.773Z,93.70
2022-09-25T01:59:59.662Z,93.31
2022-09-25T02:02:16.627Z,93.77
2022-09-25T02:04:33.878Z,93.14
2022-09-25T02:06:50.915Z,93.89
2022-09-25T02:09:07.956Z,93.92
2022-09-25T02:11:25.182Z,93.33
2022-09-25T02:13:42.422Z,94.14
2022-09-25T02:15:59.629Z,93.44
2022-09-25T02:18:16.900Z,92.34
2022-09-25T02:20:33.972Z,93.33
2022-09-25T02:22:50.885Z,93.44
2022-09-25T02:25:07.896Z,93.55
2022-09-25T02:27:26.130Z,93.36
2022-09-25T02:29:43.364Z,93.95
2022-09-25T02:32:00.315Z,92.92
2022-09-25T02:34:17.487Z,92.83
2022-09-25T02:36:35.773Z,92.69
2022-09-25T02:38:52.811Z,92.85
2022-09-25T02:41:11.155Z,93.43
2022-09-25T02:43:28.203Z,93.48
2022-09-25T02:45:45.186Z,93.72
2022-09-25T02:48:02.276Z,93.75
2022-09-25T02:50:20.307Z,92.99
2022-09-25T02:52:37.317Z,93.23
2022-09-25T02:54:54.295Z,92.91
2022-09-25T02:57:11.322Z,93.92
2022-09-25T02:59:28.586Z,94.22
2022-09-25T03:01:45.616Z,93.36
2022-09-25T03:04:02.606Z,94.63
2022-09-25T03:06:19.627Z,94.51
2022-09-25T03:08:36.662Z,93.67
2022-09-25T03:10:53.955Z,94.18
2022-09-25T03:13:12.149Z,94.10
2022-09-25T03:15:29.168Z,93.44
2022-09-25T03:17:47.503Z,94.26
2022-09-25T03:20:04.538Z,94.47
2022-09-25T03:22:21.848Z,93.39
2022-09-25T03:24:39.779Z,94.41
2022-09-25T03:26:56.782Z,93.69
2022-09-25T03:29:13.824Z,94.72
2022-09-25T03:31:32.088Z,93.67
2022-09-25T03:33:49.039Z,93.76
2022-09-25T03:36:06.292Z,94.63
2022-09-25T03:38:23.301Z,93.23
2022-09-25T03:40:41.426Z,94.24
2022-09-25T03:42:58.400Z,93.16
2022-09-25T03:45:16.347Z,93.58
2022-09-25T03:47:33.672Z,92.99
2022-09-25T03:49:51.614Z,93.74
2022-09-25T03:52:09.579Z,93.78
2022-09-25T03:54:27.553Z,93.71
2022-09-25T03:56:44.847Z,93.74
2022-09-25T03:59:01.746Z,93.95
2022-09-25T04:01:19.909Z,93.35
2022-09-25T04:03:37.247Z,93.40
2022-09-25T04:05:54.154Z,93.63
2022-09-25T04:08:11.194Z,94.03
2022-09-25T04:10:28.434Z,94.63
2022-09-25T04:12:45.604Z,93.85
2022-09-25T04:15:02.824Z,94.29
2022-09-25T04:17:20.189Z,94.95
2022-09-25T04:19:37.209Z,94.75
2022-09-25T04:21:55.234Z,94.61
2022-09-25T04:24:12.559Z,94.65
2022-09-25T04:26:29.830Z,93.99
2022-09-25T04:28:46.828Z,94.59
2022-09-25T04:31:04.138Z,94.16
2022-09-25T04:33:21.282Z,94.38
2022-09-25T04:35:39.852Z,93.82
2022-09-25T04:37:56.804Z,94.09
2022-09-25T04:40:14.207Z,94.96
2022-09-25T04:42:31.504Z,95.04
2022-09-25T04:44:48.752Z,94.51
2022-09-25T04:47:05.831Z,93.96
2022-09-25T04:49:22.721Z,93.80
2022-09-25T04:51:39.573Z,93.96
2022-09-25T04:53:56.624Z,94.14
2022-09-25T04:56:15.992Z,94.54
2022-09-25T04:58:33.697Z,94.58
2022-09-25T05:00:51.035Z,94.87
2022-09-25T05:03:08.123Z,94.42
2022-09-25T05:05:26.037Z,94.47
2022-09-25T05:07:43.846Z,94.13
2022-09-25T05:10:01.073Z,94.10
2022-09-25T05:12:18.138Z,93.81
2022-09-25T05:14:36.159Z,93.64
2022-09-25T05:16:53.095Z,94.50
2022-09-25T05:19:10.374Z,93.39
2022-09-25T05:21:27.621Z,93.69
2022-09-25T05:23:45.491Z,94.31
2022-09-25T05:26:02.848Z,94.00
2022-09-25T05:28:21.255Z,93.70
2022-09-25T05:30:38.548Z,93.96
2022-09-25T05:32:56.556Z,94.39
2022-09-25T05:35:13.851Z,94.29
2022-09-25T05:37:31.072Z,94.35
2022-09-25T05:39:48.495Z,93.96
2022-09-25T05:42:05.490Z,94.81
2022-09-25T05:44:22.547Z,94.97
2022-09-25T05:46:40.614Z,94.90
2022-09-25T05:48:57.753Z,95.23
2022-09-25T05:51:14.998Z,94.80
2022-09-25T05:53:32.340Z,94.85
2022-09-25T05:55:50.301Z,95.65
2022-09-25T05:58:07.244Z,94.96
2022-09-25T06:00:24.341Z,95.15
2022-09-25T06:02:41.445Z,95.67
2022-09-25T06:04:58.750Z,95.92
2022-09-25T06:07:15.968Z,95.94
2022-09-25T06:09:32.902Z,95.08
2022-09-25T06:11:50.155Z,95.26
2022-09-25T06:14:08.550Z,95.41
2022-09-25T06:16:25.542Z,95.31
2022-09-25T06:18:42.628Z,95.85
2022-09-25T06:20:59.660Z,94.86
2022-09-25T06:23:18.007Z,95.94
2022-09-25T06:25:35.263Z,95.65
2022-09-25T06:27:52.237Z,95.54
2022-09-25T06:30:09.943Z,95.03
2022-09-25T06:32:27.065Z,94.73
2022-09-25T06:34:45.112Z,94.73
2022-09-25T06:37:02.413Z,95.63
2022-09-25T06:39:19.457Z,95.78
2022-09-25T06:41:36.514Z,95.33
2022-09-25T06:43:53.539Z,94.31
2022-09-25T06:46:10.939Z,95.89
2022-09-25T06:48:28.927Z,95.79
2022-09-25T06:50:45.923Z,95.35
2022-09-25T06:53:03.860Z,94.19
2022-09-25T06:55:22.318Z,94.76
2022-09-25T06:57:40.523Z,95.20
2022-09-25T06:59:57.579Z,95.58
2022-09-25T07:02:14.832Z,94.38
2022-09-25T07:04:32.503Z,94.41
2022-09-25T07:06:51.003Z,94.63
2022-09-25T07:09:08.372Z,94.87
2022-09-25T07:11:25.461Z,94.88
2022-09-25T07:13:42.477Z,94.98
2022-09-25T07:15:59.709Z,94.56
2022-09-25T07:18:16.738Z,96.39
2022-09-25T07:20:34.113Z,94.47
2022-09-25T07:22:51.447Z,94.89
2022-09-25T07:25:08.501Z,94.44
2022-09-25T07:27:27.075Z,95.08
2022-09-25T07:29:44.656Z,95.36
2022-09-25T07:32:01.905Z,94.92
2022-09-25T07:34:19.415Z,95.86
2022-09-25T07:36:36.435Z,94.48
2022-09-25T07:38:54.364Z,93.92
2022-09-25T07:41:12.615Z,95.06
2022-09-25T07:43:29.900Z,94.08
2022-09-25T07:45:46.916Z,93.92
2022-09-25T07:48:03.975Z,95.26
2022-09-25T07:50:21.965Z,93.52
2022-09-25T07:52:39.498Z,94.63
2022-09-25T07:54:57.535Z,94.64
2022-09-25T07:57:14.638Z,92.76
2022-09-25T07:59:31.838Z,93.78
2022-09-25T08:01:53.686Z,93.60
2022-09-25T08:04:11.320Z,93.64
2022-09-25T08:06:28.671Z,93.88
2022-09-25T08:08:45.942Z,93.40
2022-09-25T08:11:03.165Z,93.53
2022-09-25T08:13:21.250Z,93.99
2022-09-25T08:15:38.295Z,93.03
2022-09-25T08:17:55.421Z,93.37
2022-09-25T08:20:12.828Z,93.36
2022-09-25T08:22:29.769Z,92.15
2022-09-25T08:24:47.037Z,92.42
2022-09-25T08:27:04.295Z,90.78
2022-09-25T08:29:21.666Z,89.84
2022-09-25T08:31:38.850Z,91.21
2022-09-25T08:33:56.167Z,91.84
2022-09-25T08:36:13.515Z,91.68
2022-09-25T08:38:30.970Z,91.14
2022-09-25T08:40:49.072Z,90.10
2022-09-25T08:43:07.465Z,89.76
2022-09-25T08:45:24.448Z,90.77
2022-09-25T08:47:41.485Z,90.39
2022-09-25T08:49:58.613Z,89.40
2022-09-25T08:52:15.566Z,90.52
2022-09-25T08:54:32.560Z,90.39
2022-09-25T08:56:49.944Z,89.08
2022-09-25T08:59:08.564Z,89.46
2022-09-25T09:01:25.522Z,88.17
2022-09-25T09:03:42.569Z,88.46
2022-09-25T09:05:59.888Z,88.19
2022-09-25T09:08:16.975Z,89.93
2022-09-25T09:10:34.182Z,88.62
2022-09-25T09:12:51.026Z,89.14
2022-09-25T09:15:08.098Z,89.15
2022-09-25T09:17:26.400Z,87.45
2022-09-25T09:19:43.422Z,87.00
2022-09-25T09:22:00.428Z,86.55
2022-09-25T09:24:17.674Z,87.55
2022-09-25T09:26:34.577Z,87.43
2022-09-25T09:28:51.580Z,85.11
2022-09-25T09:31:08.676Z,85.53
2022-09-25T09:33:25.899Z,85.74
2022-09-25T09:35:43.223Z,85.28
2022-09-25T09:38:01.321Z,85.24
2022-09-25T09:40:18.263Z,86.37
2022-09-25T09:42:35.648Z,86.42
2022-09-25T09:44:52.726Z,86.05
2022-09-25T09:47:09.731Z,86.48
2022-09-25T09:49:26.968Z,85.52
2022-09-25T09:51:44.201Z,87.18
2022-09-25T09:54:01.544Z,86.26
2022-09-25T09:56:18.877Z,86.61
2022-09-25T09:58:36.148Z,86.30
2022-09-25T10:00:54.440Z,87.87
2022-09-25T10:03:11.531Z,88.59
2022-09-25T10:05:28.964Z,88.83
2022-09-25T10:07:46.237Z,87.96
2022-09-25T10:10:03.517Z,88.89
2022-09-25T10:12:20.483Z,89.11
2022-09-25T10:14:37.486Z,88.87
2022-09-25T10:16:54.840Z,87.94
2022-09-25T10:19:12.895Z,88.44
2022-09-25T10:21:29.861Z,88.23
2022-09-25T10:23:47.827Z,87.61
2022-09-25T10:26:07.349Z,88.17
2022-09-25T10:28:24.436Z,88.58
2022-09-25T10:30:42.438Z,87.21
2022-09-25T10:32:59.503Z,87.81
2022-09-25T10:35:16.836Z,88.54
2022-09-25T10:37:34.151Z,87.72
2022-09-25T10:39:51.352Z,89.31
2022-09-25T10:42:08.513Z,89.34
2022-09-25T10:44:25.621Z,86.64
2022-09-25T10:46:42.841Z,86.45
2022-09-25T10:49:00.200Z,87.26
2022-09-25T10:51:18.447Z,86.39
2022-09-25T10:53:35.809Z,85.79
2022-09-25T10:55:52.878Z,86.01
2022-09-25T10:58:10.905Z,84.66
2022-09-25T11:00:27.951Z,85.49
2022-09-25T11:02:46.351Z,87.94
2022-09-25T11:05:03.438Z,87.45
2022-09-25T11:07:21.492Z,84.92
2022-09-25T11:09:38.817Z,84.42
2022-09-25T11:11:56.109Z,84.55
2022-09-25T11:14:13.179Z,84.45
2022-09-25T11:16:30.492Z,83.75
2022-09-25T11:18:47.840Z,84.66
2022-09-25T11:21:04.783Z,85.08
2022-09-25T11:23:21.844Z,85.63
2022-09-25T11:25:38.870Z,85.04
2022-09-25T11:27:55.934Z,85.46
2022-09-25T11:30:13.314Z,84.20
2022-09-25T11:32:30.548Z,81.94
2022-09-25T11:34:48.952Z,83.70
2022-09-25T11:37:06.875Z,84.75
2022-09-25T11:39:24.275Z,85.33
2022-09-25T11:41:42.243Z,85.68
2022-09-25T11:43:59.288Z,83.49
2022-09-25T11:46:16.763Z,84.07
2022-09-25T11:48:35.124Z,83.92
2022-09-25T11:50:52.072Z,84.11
2022-09-25T11:53:09.357Z,84.35
2022-09-25T11:55:26.308Z,85.15
2022-09-25T11:57:43.670Z,85.33
2022-09-25T12:00:01.051Z,85.58
2022-09-25T12:02:18.076Z,84.77
2022-09-25T12:04:40.724Z,83.75
2022-09-25T12:06:58.624Z,84.63
2022-09-25T12:09:15.674Z,83.91
2022-09-25T12:11:32.719Z,82.84
2022-09-25T12:13:50.024Z,83.79
2022-09-25T12:16:07.370Z,85.08
2022-09-25T12:18:24.703Z,84.98
2022-09-25T12:20:42.160Z,83.07
2022-09-25T12:22:59.431Z,83.27
2022-09-25T12:25:16.608Z,84.03
2022-09-25T12:27:34.056Z,82.68
2022-09-25T12:29:51.541Z,82.52
2022-09-25T12:32:09.957Z,83.51
2022-09-25T12:34:26.959Z,82.32
2022-09-25T12:36:44.874Z,82.57
2022-09-25T12:39:02.131Z,83.94
2022-09-25T12:41:19.365Z,82.17
2022-09-25T12:43:36.598Z,81.93
2022-09-25T12:45:54.618Z,82.44
2022-09-25T12:48:11.617Z,82.35
2022-09-25T12:50:28.698Z,81.95
2022-09-25T12:52:46.725Z,82.17
2022-09-25T12:55:03.955Z,82.15
2022-09-25T12:57:20.930Z,82.26
2022-09-25T12:59:42.633Z,81.54
2022-09-25T13:02:03.819Z,82.01
2022-09-25T13:04:21.865Z,82.33
2022-09-25T13:06:39.279Z,80.71
2022-09-25T13:08:57.499Z,82.94
2022-09-25T13:11:15.901Z,82.29
2022-09-25T13:13:32.930Z,83.05
2022-09-25T13:15:49.929Z,82.04
2022-09-25T13:18:09.292Z,82.56
2022-09-25T13:20:27.762Z,83.18
2022-09-25T13:22:44.913Z,82.69
2022-09-25T13:25:03.307Z,82.23
2022-09-25T13:27:20.669Z,81.54
2022-09-25T13:29:38.015Z,82.92
2022-09-25T13:31:54.971Z,84.70
2022-09-25T13:34:13.127Z,81.77
2022-09-25T13:36:30.278Z,84.31
2022-09-25T13:38:47.251Z,83.26
2022-09-25T13:41:05.491Z,84.61
2022-09-25T13:43:22.551Z,84.55
2022-09-25T13:45:39.482Z,83.59
2022-09-25T13:47:56.612Z,85.49
2022-09-25T13:50:13.715Z,85.29
2022-09-25T13:52:30.638Z,85.51
2022-09-25T13:54:47.926Z,85.95
2022-09-25T13:57:04.912Z,85.27
2022-09-25T13:59:21.952Z,86.82
2022-09-25T14:01:38.946Z,86.50
2022-09-25T14:03:56.177Z,86.43
2022-09-25T14:06:13.494Z,86.29
2022-09-25T14:08:30.406Z,85.32
2022-09-25T14:10:47.356Z,85.96
2022-09-25T14:13:07.117Z,85.90
2022-09-25T14:15:24.500Z,86.47
2022-09-25T14:17:41.735Z,84.73
2022-09-25T14:20:00.241Z,85.20
2022-09-25T14:22:17.465Z,85.85
2022-09-25T14:24:34.396Z,85.26
2022-09-25T14:26:51.316Z,85.94
2022-09-25T14:29:08.288Z,86.78
2022-09-25T14:31:25.609Z,86.63
2022-09-25T14:33:42.626Z,87.57
2022-09-25T14:35:59.968Z,87.19
2022-09-25T14:38:17.032Z,86.97
2022-09-25T14:40:34.412Z,84.17
2022-09-25T14:42:52.827Z,84.71
2022-09-25T14:45:09.940Z,83.32
2022-09-25T14:47:26.947Z,83.53
2022-09-25T14:49:44.587Z,84.29
2022-09-25T14:52:01.659Z,84.96
2022-09-25T14:54:18.689Z,83.32
2022-09-25T14:56:35.968Z,81.84
2022-09-25T14:58:53.280Z,81.76
2022-09-25T15:01:10.298Z,81.99
2022-09-25T15:03:27.647Z,82.08
2022-09-25T15:05:44.580Z,82.31
2022-09-25T15:08:01.940Z,82.14
2022-09-25T15:10:20.027Z,82.86
2022-09-25T15:12:37.103Z,81.72
2022-09-25T15:14:54.209Z,82.22
2022-09-25T15:17:11.308Z,82.38
2022-09-25T15:19:28.329Z,81.12
2022-09-25T15:21:45.681Z,82.50
2022-09-25T15:24:02.579Z,82.94
2022-09-25T15:26:19.655Z,82.67
2022-09-25T15:28:36.991Z,83.92
2022-09-25T15:30:54.347Z,85.72
2022-09-25T15:33:12.379Z,86.32
2022-09-25T15:35:29.526Z,85.05
2022-09-25T15:37:46.751Z,85.15
2022-09-25T15:40:04.760Z,86.47
2022-09-25T15:42:21.786Z,86.47
2022-09-25T15:44:39.824Z,85.82
2022-09-25T15:46:57.243Z,87.96
2022-09-25T15:49:14.168Z,87.44
2022-09-25T15:51:31.248Z,88.96
2022-09-25T15:53:48.321Z,88.03
2022-09-25T15:56:05.243Z,87.75
2022-09-25T15:58:22.532Z,87.99
2022-09-25T16:00:39.605Z,89.89
2022-09-25T16:02:56.772Z,89.61
2022-09-25T16:05:14.159Z,88.22
2022-09-25T16:07:31.420Z,88.11
2022-09-25T16:09:49.411Z,86.79
2022-09-25T16:12:06.652Z,88.00
2022-09-25T16:14:23.586Z,87.59
2022-09-25T16:16:40.958Z,88.11
2022-09-25T16:18:58.303Z,88.00
2022-09-25T16:21:15.243Z,86.06
2022-09-25T16:23:32.622Z,86.09
2022-09-25T16:25:49.849Z,87.55
2022-09-25T16:28:06.884Z,86.75
2022-09-25T16:30:23.813Z,87.52
2022-09-25T16:32:40.840Z,88.41
2022-09-25T16:34:57.843Z,88.56
2022-09-25T16:37:14.951Z,89.74
2022-09-25T16:39:31.964Z,88.16
2022-09-25T16:41:49.047Z,88.56
2022-09-25T16:44:06.987Z,89.16
2022-09-25T16:46:23.980Z,90.57
2022-09-25T16:48:42.113Z,90.47
2022-09-25T16:50:59.129Z,90.90
2022-09-25T16:53:16.415Z,89.30
2022-09-25T16:55:33.480Z,90.04
2022-09-25T16:57:51.464Z,88.67
2022-09-25T17:00:08.470Z,89.24
2022-09-25T17:02:25.555Z,89.35
2022-09-25T17:04:43.710Z,89.64
2022-09-25T17:07:00.713Z,90.45
2022-09-25T17:09:17.686Z,88.97
2022-09-25T17:11:34.713Z,90.46
2022-09-25T17:13:51.546Z,90.55
2022-09-25T17:16:08.818Z,90.31
2022-09-25T17:18:25.812Z,90.92
2022-09-25T17:20:42.841Z,90.98
2022-09-25T17:22:59.834Z,89.60
2022-09-25T17:25:16.823Z,90.44
2022-09-25T17:27:34.106Z,91.04
2022-09-25T17:29:52.456Z,89.64
2022-09-25T17:32:10.366Z,90.30
2022-09-25T17:34:27.383Z,90.95
2022-09-25T17:36:44.654Z,90.03
2022-09-25T17:39:02.461Z,89.89
2022-09-25T17:41:19.544Z,89.79
2022-09-25T17:43:37.860Z,90.38
2022-09-25T17:45:55.163Z,89.85
2022-09-25T17:48:13.265Z,89.88
2022-09-25T17:50:30.468Z,90.92
2022-09-25T17:52:47.482Z,90.52
2022-09-25T17:55:04.465Z,89.99
2022-09-25T17:57:21.563Z,89.89
2022-09-25T17:59:38.863Z,90.82
2022-09-25T18:01:55.786Z,90.43
2022-09-25T18:04:13.922Z,91.06
2022-09-25T18:06:31.247Z,90.95
2022-09-25T18:08:48.270Z,91.02
2022-09-25T18:11:05.569Z,90.22
2022-09-25T18:13:22.490Z,89.88
2022-09-25T18:15:39.805Z,90.60
2022-09-25T18:17:57.112Z,90.17
2022-09-25T18:20:14.187Z,90.71
2022-09-25T18:22:31.350Z,90.52
2022-09-25T18:24:48.665Z,90.90
2022-09-25T18:27:05.664Z,90.47
2022-09-25T18:29:22.579Z,90.69
2022-09-25T18:31:39.745Z,90.74
2022-09-25T18:33:57.614Z,90.72
2022-09-25T18:36:14.722Z,90.92
2022-09-25T18:38:32.022Z,91.00
2022-09-25T18:40:49.016Z,90.93
2022-09-25T18:43:07.308Z,90.93
2022-09-25T18:45:24.250Z,91.16
2022-09-25T18:47:41.127Z,91.45
2022-09-25T18:50:01.404Z,91.45
2022-09-25T18:52:18.365Z,90.94
2022-09-25T18:54:36.748Z,91.25
2022-09-25T18:56:53.674Z,91.37
2022-09-25T18:59:10.717Z,91.37
2022-09-25T19:01:27.843Z,91.53
2022-09-25T19:03:45.660Z,90.97
2022-09-25T19:06:02.583Z,91.47
2022-09-25T19:08:19.589Z,90.82
2022-09-25T19:10:37.035Z,91.28
2022-09-25T19:12:53.961Z,91.79
2022-09-25T19:15:11.052Z,91.90
2022-09-25T19:17:27.968Z,92.52
2022-09-25T19:19:44.936Z,92.10
2022-09-25T19:22:02.297Z,92.60
2022-09-25T19:24:19.722Z,92.49
2022-09-25T19:26:37.040Z,92.49
2022-09-25T19:28:54.077Z,92.74
2022-09-25T19:31:12.140Z,92.33
2022-09-25T19:33:29.114Z,91.89
2022-09-25T19:35:46.860Z,92.08
2022-09-25T19:38:04.668Z,91.67
2022-09-25T19:40:23.429Z,92.29
2022-09-25T19:42:40.748Z,92.13
2022-09-25T19:44:57.768Z,92.00
2022-09-25T19:47:15.056Z,92.32
2022-09-25T19:49:32.263Z,92.76
2022-09-25T19:51:49.406Z,92.02
2022-09-25T19:54:06.689Z,92.02
2022-09-25T19:56:23.560Z,91.96
2022-09-25T19:58:40.793Z,92.20
2022-09-25T20:00:57.962Z,92.26
2022-09-25T20:03:15.035Z,91.61
2022-09-25T20:05:32.017Z,91.77
2022-09-25T20:07:49.070Z,91.62
2022-09-25T20:10:06.002Z,91.54
2022-09-25T20:12:24.201Z,91.76
2022-09-25T20:14:41.395Z,91.93
2022-09-25T20:16:58.504Z,91.69
2022-09-25T20:19:15.519Z,92.08
2022-09-25T20:21:33.943Z,92.16
2022-09-25T20:23:50.996Z,92.17
2022-09-25T20:26:08.216Z,92.13
2022-09-25T20:28:25.151Z,92.20
2022-09-25T20:30:42.141Z,91.96
2022-09-25T20:32:59.474Z,92.30
2022-09-25T20:35:16.717Z,91.97
2022-09-25T20:37:33.940Z,91.96
2022-09-25T20:39:50.927Z,91.92
2022-09-25T20:42:07.901Z,92.05
2022-09-25T20:44:24.947Z,91.87
2022-09-25T20:46:42.037Z,92.04
2022-09-25T20:48:59.182Z,91.79
2022-09-25T20:51:16.172Z,92.00
2022-09-25T20:53:33.396Z,91.66
2022-09-25T20:55:50.680Z,91.67
2022-09-25T20:58:07.723Z,91.41
2022-09-25T21:00:24.702Z,92.00
2022-09-25T21:02:41.778Z,91.75
2022-09-25T21:04:59.056Z,92.26
2022-09-25T21:07:17.323Z,91.81
2022-09-25T21:09:34.501Z,92.54
2022-09-25T21:11:51.505Z,91.78
2022-09-25T21:14:09.455Z,92.30
2022-09-25T21:16:26.601Z,92.53
2022-09-25T21:18:43.669Z,92.05
2022-09-25T21:21:01.864Z,92.44
2022-09-25T21:23:19.082Z,92.03
2022-09-25T21:25:36.138Z,91.26
2022-09-25T21:27:54.121Z,91.48
2022-09-25T21:30:11.140Z,92.32
2022-09-25T21:32:29.247Z,92.34
2022-09-25T21:34:46.282Z,91.95
2022-09-25T21:37:03.278Z,91.81
2022-09-25T21:39:21.300Z,92.12
2022-09-25T21:41:38.519Z,91.95
2022-09-25T21:43:55.533Z,91.61
2022-09-25T21:46:12.768Z,91.34
2022-09-25T21:48:29.803Z,91.58
2022-09-25T21:50:46.699Z,91.09
2022-09-25T21:53:03.937Z,90.92
2022-09-25T21:55:21.151Z,90.73
2022-09-25T21:57:38.153Z,90.49
2022-09-25T21:59:55.381Z,90.46
2022-09-25T22:02:13.418Z,90.71
2022-09-25T22:04:30.478Z,91.70
2022-09-25T22:06:47.307Z,91.10
2022-09-25T22:09:04.589Z,90.75
2022-09-25T22:11:21.803Z,90.69
2022-09-25T22:13:38.724Z,90.93
2022-09-25T22:15:55.704Z,90.55
2022-09-25T22:18:12.689Z,91.02
2022-09-25T22:20:32.474Z,90.63
2022-09-25T22:22:49.873Z,90.52
2022-09-25T22:25:07.077Z,91.16
2022-09-25T22:27:24.365Z,91.24
2022-09-25T22:29:41.651Z,91.15
2022-09-25T22:31:58.936Z,90.81
2022-09-25T22:34:17.146Z,90.54
2022-09-25T22:36:34.015Z,91.36
2022-09-25T22:38:50.990Z,90.76
2022-09-25T22:41:08.275Z,91.41
2022-09-25T22:43:25.262Z,90.40
2022-09-25T22:45:42.324Z,90.40
2022-09-25T22:47:59.628Z,91.09
2022-09-25T22:50:17.618Z,90.54
2022-09-25T22:52:35.278Z,90.83
2022-09-25T22:54:52.894Z,91.10
2022-09-25T22:57:09.919Z,90.90
2022-09-25T22:59:27.119Z,90.19
2022-09-25T23:01:44.085Z,90.64
2022-09-25T23:04:02.171Z,91.59
2022-09-25T23:06:19.168Z,89.65
2022-09-25T23:08:36.210Z,90.92
2022-09-25T23:11:06.643Z,89.76
2022-09-25T23:13:24.386Z,89.99
2022-09-25T23:15:41.296Z,90.28
2022-09-25T23:17:58.288Z,91.12
2022-09-25T23:20:15.192Z,89.83
2022-09-25T23:22:32.449Z,90.99
2022-09-25T23:24:49.413Z,91.35
2022-09-25T23:27:06.655Z,91.04
2022-09-25T23:29:23.904Z,90.25
2022-09-25T23:31:41.173Z,90.93
2022-09-25T23:33:59.127Z,90.53
2022-09-25T23:36:16.481Z,91.63
2022-09-25T23:38:33.669Z,91.13
2022-09-25T23:40:50.971Z,90.01
2022-09-25T23:43:08.074Z,89.57
2022-09-25T23:45:26.060Z,90.89
2022-09-25T23:47:43.249Z,90.29
2022-09-25T23:50:04.412Z,88.72
2022-09-25T23:52:21.783Z,89.79
2022-09-25T23:54:39.275Z,89.43
2022-09-25T23:56:57.112Z,88.93
2022-09-25T23:59:14.275Z,88.04
